createdAt,value
2018-05-26T00:00:43.634Z,13.7
2018-05-26T00:01:45.620Z,13.7
2018-05-26T00:02:48.278Z,13.7
2018-05-26T00:03:50.663Z,13.7
2018-05-26T00:04:52.648Z,13.7
2018-05-26T00:05:54.645Z,13.7
2018-05-26T00:06:56.654Z,13.7
2018-05-26T00:07:59.030Z,13.6
2018-05-26T00:09:01.012Z,13.6
2018-05-26T00:10:03.018Z,13.6
2018-05-26T00:11:05.015Z,13.6
2018-05-26T00:12:07.012Z,13.6
2018-05-26T00:13:09.296Z,13.6
2018-05-26T00:14:11.297Z,13.7
2018-05-26T00:15:13.971Z,13.6
2018-05-26T00:16:16.535Z,13.6
2018-05-26T00:17:18.528Z,13.6
2018-05-26T00:18:20.507Z,13.6
2018-05-26T00:19:22.513Z,13.6
2018-05-26T00:20:24.505Z,13.6
2018-05-26T00:21:26.888Z,13.6
2018-05-26T00:22:28.883Z,13.5
2018-05-26T00:23:30.884Z,13.5
2018-05-26T00:24:32.884Z,13.5
2018-05-26T00:25:34.901Z,13.5
2018-05-26T00:26:36.875Z,13.5
2018-05-26T00:27:38.878Z,13.4
2018-05-26T00:28:40.863Z,13.4
2018-05-26T00:29:42.852Z,13.5
2018-05-26T00:30:44.839Z,13.5
2018-05-26T00:31:46.840Z,13.5
2018-05-26T00:32:49.120Z,13.4
2018-05-26T00:33:51.109Z,13.5
2018-05-26T00:34:53.110Z,13.4
2018-05-26T00:35:55.491Z,13.4
2018-05-26T00:36:57.483Z,13.4
2018-05-26T00:37:59.482Z,13.3
2018-05-26T00:39:01.469Z,13.4
2018-05-26T00:40:03.468Z,13.4
2018-05-26T00:41:05.470Z,13.4
2018-05-26T00:42:07.463Z,13.5
2018-05-26T00:43:09.467Z,13.5
2018-05-26T00:44:11.849Z,13.5
2018-05-26T00:45:13.844Z,13.5
2018-05-26T00:46:15.832Z,13.5
2018-05-26T00:47:18.112Z,13.5
2018-05-26T00:48:20.101Z,13.5
2018-05-26T00:49:22.090Z,13.5
2018-05-26T00:50:24.083Z,13.5
2018-05-26T00:51:26.075Z,13.4
2018-05-26T00:52:28.347Z,13.4
2018-05-26T00:53:30.733Z,13.3
2018-05-26T00:54:32.722Z,13.4
2018-05-26T00:55:34.717Z,13.4
2018-05-26T00:56:37.104Z,13.4
2018-05-26T00:57:39.102Z,13.3
2018-05-26T00:58:41.368Z,13.2
2018-05-26T00:59:43.358Z,13.3
2018-05-26T01:00:45.359Z,13.3
2018-05-26T01:01:47.351Z,13.3
2018-05-26T01:02:49.353Z,13.3
2018-05-26T01:03:51.350Z,13.3
2018-05-26T01:04:53.345Z,13.2
2018-05-26T01:05:55.329Z,13.3
2018-05-26T01:06:57.619Z,13.3
2018-05-26T01:07:59.927Z,13.2
2018-05-26T01:09:01.919Z,13.2
2018-05-26T01:10:03.908Z,13.2
2018-05-26T01:11:05.909Z,13.2
2018-05-26T01:12:08.216Z,13.2
2018-05-26T01:13:10.203Z,13.2
2018-05-26T01:14:12.755Z,13.2
2018-05-26T01:15:15.426Z,13.2
2018-05-26T01:16:17.414Z,13.2
2018-05-26T01:17:19.404Z,13.2
2018-05-26T01:18:21.405Z,13.1
2018-05-26T01:19:23.405Z,13.1
2018-05-26T01:20:25.402Z,13.1
2018-05-26T01:21:27.390Z,13.1
2018-05-26T01:22:29.389Z,13.2
2018-05-26T01:23:31.386Z,13.2
2018-05-26T01:24:33.641Z,13.2
2018-05-26T01:25:35.640Z,13.1
2018-05-26T01:26:37.640Z,13.1
2018-05-26T01:27:39.636Z,13.2
2018-05-26T01:28:41.623Z,13.2
2018-05-26T01:29:43.627Z,13.2
2018-05-26T01:30:45.609Z,13.1
2018-05-26T01:31:47.616Z,13.1
2018-05-26T01:32:49.609Z,13.1
2018-05-26T01:33:51.602Z,13.1
2018-05-26T01:34:53.597Z,13.1
2018-05-26T01:35:55.587Z,13.1
2018-05-26T01:36:57.860Z,13.1
2018-05-26T01:37:59.865Z,13
2018-05-26T01:39:02.122Z,13
2018-05-26T01:40:04.415Z,13
2018-05-26T01:41:06.401Z,12.9
2018-05-26T01:42:08.396Z,12.9
2018-05-26T01:43:10.674Z,13
2018-05-26T01:44:12.665Z,12.9
2018-05-26T01:45:14.663Z,13
2018-05-26T01:46:16.651Z,13.1
2018-05-26T01:47:19.024Z,13
2018-05-26T01:48:21.023Z,13
2018-05-26T01:49:23.015Z,13
2018-05-26T01:50:25.300Z,12.9
2018-05-26T01:51:27.287Z,12.9
2018-05-26T01:52:29.281Z,13
2018-05-26T01:53:31.263Z,13
2018-05-26T01:54:33.262Z,12.9
2018-05-26T01:55:35.550Z,12.9
2018-05-26T01:56:37.959Z,13
2018-05-26T01:57:39.915Z,12.9
2018-05-26T01:58:42.223Z,12.9
2018-05-26T01:59:44.492Z,12.9
2018-05-26T02:00:46.771Z,12.9
2018-05-26T02:01:48.765Z,12.9
2018-05-26T02:02:50.752Z,12.9
2018-05-26T02:03:52.747Z,13
2018-05-26T02:04:55.125Z,12.9
2018-05-26T02:05:57.107Z,12.8
2018-05-26T02:06:59.117Z,12.8
2018-05-26T02:08:01.383Z,12.9
2018-05-26T02:09:03.383Z,12.9
2018-05-26T02:10:05.386Z,12.9
2018-05-26T02:11:07.382Z,12.9
2018-05-26T02:12:09.381Z,12.9
2018-05-26T02:13:11.374Z,12.9
2018-05-26T02:14:13.363Z,12.9
2018-05-26T02:15:15.357Z,12.9
2018-05-26T02:16:17.348Z,12.9
2018-05-26T02:17:19.345Z,12.9
2018-05-26T02:18:21.333Z,12.9
2018-05-26T02:19:23.331Z,12.9
2018-05-26T02:20:25.316Z,12.9
2018-05-26T02:21:27.314Z,12.9
2018-05-26T02:22:29.306Z,12.9
2018-05-26T02:23:31.302Z,12.9
2018-05-26T02:24:33.685Z,12.8
2018-05-26T02:25:35.679Z,12.8
2018-05-26T02:26:37.666Z,12.8
2018-05-26T02:27:39.949Z,12.8
2018-05-26T02:28:41.948Z,12.8
2018-05-26T02:29:43.942Z,12.8
2018-05-26T02:30:46.320Z,12.8
2018-05-26T02:31:48.327Z,12.8
2018-05-26T02:32:51.260Z,12.8
2018-05-26T02:33:53.264Z,12.8
2018-05-26T02:34:55.536Z,12.8
2018-05-26T02:35:57.545Z,12.8
2018-05-26T02:36:59.533Z,12.8
2018-05-26T02:38:01.537Z,12.8
2018-05-26T02:39:03.533Z,12.7
2018-05-26T02:40:05.919Z,12.7
2018-05-26T02:41:08.481Z,12.6
2018-05-26T02:42:11.051Z,12.6
2018-05-26T02:43:13.045Z,12.7
2018-05-26T02:44:15.429Z,12.7
2018-05-26T02:45:17.415Z,12.7
2018-05-26T02:46:19.710Z,12.7
2018-05-26T02:47:22.763Z,12.7
2018-05-26T02:48:24.752Z,12.7
2018-05-26T02:49:27.037Z,12.7
2018-05-26T02:50:29.312Z,12.7
2018-05-26T02:51:31.312Z,12.7
2018-05-26T02:52:33.596Z,12.6
2018-05-26T02:53:36.152Z,12.6
2018-05-26T02:54:38.414Z,12.6
2018-05-26T02:55:40.413Z,12.6
2018-05-26T02:56:42.695Z,12.6
2018-05-26T02:57:44.995Z,12.6
2018-05-26T02:58:47.001Z,12.6
2018-05-26T02:59:49.003Z,12.6
2018-05-26T03:00:51.004Z,12.6
2018-05-26T03:01:52.994Z,12.6
2018-05-26T03:02:55.275Z,12.5
2018-05-26T03:03:57.661Z,12.6
2018-05-26T03:04:59.654Z,12.6
2018-05-26T03:06:01.657Z,12.5
2018-05-26T03:07:03.644Z,12.5
2018-05-26T03:08:05.941Z,12.5
2018-05-26T03:09:08.305Z,12.5
2018-05-26T03:10:10.691Z,12.6
2018-05-26T03:11:13.271Z,12.6
2018-05-26T03:12:15.272Z,12.6
2018-05-26T03:13:17.527Z,12.6
2018-05-26T03:14:19.541Z,12.7
2018-05-26T03:15:21.530Z,12.7
2018-05-26T03:16:23.813Z,12.6
2018-05-26T03:17:26.087Z,12.6
2018-05-26T03:18:28.376Z,12.7
2018-05-26T03:19:30.762Z,12.6
2018-05-26T03:20:33.017Z,12.7
2018-05-26T03:21:35.014Z,12.6
2018-05-26T03:22:37.012Z,12.6
2018-05-26T03:23:39.007Z,12.7
2018-05-26T03:24:41.001Z,12.7
2018-05-26T03:25:42.995Z,12.7
2018-05-26T03:26:44.982Z,12.6
2018-05-26T03:27:47.353Z,12.6
2018-05-26T03:28:49.357Z,12.6
2018-05-26T03:29:51.349Z,12.6
2018-05-26T03:30:53.346Z,12.7
2018-05-26T03:31:55.613Z,12.6
2018-05-26T03:32:57.877Z,12.6
2018-05-26T03:34:00.179Z,12.7
2018-05-26T03:35:02.159Z,12.7
2018-05-26T03:36:04.153Z,12.6
2018-05-26T03:37:06.151Z,12.6
2018-05-26T03:38:08.142Z,12.6
2018-05-26T03:39:10.143Z,12.6
2018-05-26T03:40:12.129Z,12.7
2018-05-26T03:41:14.124Z,12.7
2018-05-26T03:42:16.514Z,12.7
2018-05-26T03:43:18.785Z,12.7
2018-05-26T03:44:21.074Z,12.8
2018-05-26T03:45:23.069Z,12.8
2018-05-26T03:46:25.323Z,12.8
2018-05-26T03:47:27.318Z,12.8
2018-05-26T03:48:29.308Z,12.7
2018-05-26T03:49:31.293Z,12.7
2018-05-26T03:50:33.292Z,12.7
2018-05-26T03:51:35.290Z,12.8
2018-05-26T03:52:37.574Z,12.7
2018-05-26T03:53:39.559Z,12.7
2018-05-26T03:54:41.566Z,12.8
2018-05-26T03:55:43.571Z,12.8
2018-05-26T03:56:45.847Z,12.8
2018-05-26T03:57:47.845Z,12.8
2018-05-26T03:58:50.401Z,12.8
2018-05-26T03:59:52.387Z,12.8
2018-05-26T04:00:54.398Z,12.9
2018-05-26T04:01:56.385Z,12.8
2018-05-26T04:02:58.377Z,12.9
2018-05-26T04:04:00.749Z,12.9
2018-05-26T04:05:02.749Z,12.9
2018-05-26T04:06:04.768Z,12.9
2018-05-26T04:07:06.751Z,12.9
2018-05-26T04:08:09.598Z,12.9
2018-05-26T04:09:11.593Z,12.9
2018-05-26T04:10:13.589Z,12.9
2018-05-26T04:11:15.995Z,12.9
2018-05-26T04:12:17.970Z,12.9
2018-05-26T04:13:19.971Z,12.9
2018-05-26T04:14:21.969Z,13
2018-05-26T04:15:23.946Z,13
2018-05-26T04:16:26.534Z,13.1
2018-05-26T04:17:28.547Z,13.1
2018-05-26T04:18:30.535Z,13.1
2018-05-26T04:19:32.527Z,13.1
2018-05-26T04:20:34.830Z,13.1
2018-05-26T04:21:36.814Z,13.1
2018-05-26T04:22:38.809Z,13.1
2018-05-26T04:23:40.799Z,13.1
2018-05-26T04:24:42.797Z,13.1
2018-05-26T04:25:44.790Z,13.1
2018-05-26T04:26:47.051Z,13.1
2018-05-26T04:27:49.058Z,13.1
2018-05-26T04:28:51.046Z,13.1
2018-05-26T04:29:53.044Z,13.2
2018-05-26T04:30:55.037Z,13.2
2018-05-26T04:31:57.038Z,13.2
2018-05-26T04:32:59.041Z,13.2
2018-05-26T04:34:01.410Z,13.3
2018-05-26T04:35:03.411Z,13.3
2018-05-26T04:36:05.688Z,13.3
2018-05-26T04:37:07.679Z,13.3
2018-05-26T04:38:09.670Z,13.3
2018-05-26T04:39:11.655Z,13.3
2018-05-26T04:40:13.933Z,13.4
2018-05-26T04:41:15.921Z,13.4
2018-05-26T04:42:17.924Z,13.4
2018-05-26T04:43:20.201Z,13.4
2018-05-26T04:44:22.203Z,13.4
2018-05-26T04:45:24.187Z,13.4
2018-05-26T04:46:26.559Z,13.5
2018-05-26T04:47:28.846Z,13.5
2018-05-26T04:48:30.833Z,13.5
2018-05-26T04:49:32.835Z,13.5
2018-05-26T04:50:34.825Z,13.6
2018-05-26T04:51:36.811Z,13.5
2018-05-26T04:52:38.814Z,13.6
2018-05-26T04:53:40.812Z,13.6
2018-05-26T04:54:42.814Z,13.6
2018-05-26T04:55:44.808Z,13.6
2018-05-26T04:56:46.808Z,13.7
2018-05-26T04:57:48.817Z,13.7
2018-05-26T04:58:51.189Z,13.7
2018-05-26T04:59:53.460Z,13.8
2018-05-26T05:00:55.748Z,13.7
2018-05-26T05:01:57.736Z,13.8
2018-05-26T05:02:59.733Z,13.8
2018-05-26T05:04:01.727Z,13.9
2018-05-26T05:05:04.008Z,13.9
2018-05-26T05:06:06.009Z,13.9
2018-05-26T05:07:08.273Z,13.9
2018-05-26T05:08:10.272Z,13.9
2018-05-26T05:09:12.275Z,13.9
2018-05-26T05:10:14.304Z,14
2018-05-26T05:11:16.275Z,14.1
2018-05-26T05:12:18.273Z,14.1
2018-05-26T05:13:20.264Z,14.1
2018-05-26T05:14:22.257Z,14.1
2018-05-26T05:15:24.635Z,14.1
2018-05-26T05:16:26.642Z,14.1
2018-05-26T05:17:28.646Z,14.2
2018-05-26T05:18:30.916Z,14.2
2018-05-26T05:19:32.960Z,14.3
2018-05-26T05:20:35.289Z,14.3
2018-05-26T05:21:37.571Z,14.6
2018-05-26T05:22:39.572Z,14.5
2018-05-26T05:23:41.565Z,14.5
2018-05-26T05:24:43.566Z,14.5
2018-05-26T05:25:45.569Z,14.5
2018-05-26T05:26:47.619Z,14.5
2018-05-26T05:27:49.900Z,14.6
2018-05-26T05:28:51.904Z,14.6
2018-05-26T05:29:53.885Z,14.6
2018-05-26T05:30:56.261Z,14.6
2018-05-26T05:31:58.253Z,14.6
2018-05-26T05:33:00.252Z,14.7
2018-05-26T05:34:02.533Z,14.7
2018-05-26T05:35:04.533Z,14.9
2018-05-26T05:36:06.541Z,14.9
2018-05-26T05:37:08.532Z,14.9
2018-05-26T05:38:10.534Z,15
2018-05-26T05:39:12.536Z,15.1
2018-05-26T05:40:14.532Z,15.3
2018-05-26T05:41:16.537Z,15.4
2018-05-26T05:42:18.519Z,15.4
2018-05-26T05:43:20.812Z,15.4
2018-05-26T05:44:22.805Z,15.4
2018-05-26T05:45:24.802Z,15.4
2018-05-26T05:46:26.801Z,15.4
2018-05-26T05:47:28.799Z,15.4
2018-05-26T05:48:31.176Z,15.4
2018-05-26T05:49:33.174Z,15.4
2018-05-26T05:50:35.447Z,15.4
2018-05-26T05:51:37.455Z,15.5
2018-05-26T05:52:39.456Z,15.5
2018-05-26T05:53:41.456Z,15.6
2018-05-26T05:54:43.450Z,15.6
2018-05-26T05:55:45.449Z,15.6
2018-05-26T05:56:47.439Z,15.7
2018-05-26T05:57:49.436Z,15.7
2018-05-26T05:58:51.789Z,15.7
2018-05-26T05:59:53.779Z,15.7
2018-05-26T06:00:55.781Z,15.7
2018-05-26T06:01:57.793Z,15.8
2018-05-26T06:03:00.070Z,15.9
2018-05-26T06:04:02.459Z,15.9
2018-05-26T06:05:04.448Z,16
2018-05-26T06:06:06.453Z,15.9
2018-05-26T06:07:08.741Z,16
2018-05-26T06:08:11.316Z,16
2018-05-26T06:09:13.599Z,16
2018-05-26T06:10:15.587Z,16.1
2018-05-26T06:11:17.590Z,16.1
2018-05-26T06:12:19.873Z,16.1
2018-05-26T06:13:21.862Z,16.1
2018-05-26T06:14:23.867Z,16.2
2018-05-26T06:15:26.193Z,16.2
2018-05-26T06:16:28.183Z,16.2
2018-05-26T06:17:30.196Z,16.3
2018-05-26T06:18:32.199Z,16.4
2018-05-26T06:19:34.189Z,16.5
2018-05-26T06:20:36.195Z,16.6
2018-05-26T06:21:38.181Z,16.6
2018-05-26T06:22:40.506Z,16.7
2018-05-26T06:23:42.892Z,16.7
2018-05-26T06:24:44.886Z,16.8
2018-05-26T06:25:46.889Z,16.9
2018-05-26T06:26:49.169Z,16.9
2018-05-26T06:27:51.158Z,17
2018-05-26T06:28:53.158Z,17.2
2018-05-26T06:29:55.163Z,17.3
2018-05-26T06:30:57.166Z,17.2
2018-05-26T06:31:59.551Z,17.3
2018-05-26T06:33:01.933Z,17.3
2018-05-26T06:34:03.928Z,17.4
2018-05-26T06:35:05.932Z,17.3
2018-05-26T06:36:07.936Z,17.4
2018-05-26T06:37:09.930Z,17.6
2018-05-26T06:38:11.932Z,17.6
2018-05-26T06:39:13.946Z,17.6
2018-05-26T06:40:15.935Z,17.7
2018-05-26T06:41:17.940Z,17.8
2018-05-26T06:42:20.215Z,17.9
2018-05-26T06:43:22.223Z,17.9
2018-05-26T06:44:24.499Z,18
2018-05-26T06:45:26.490Z,18.1
2018-05-26T06:46:28.781Z,18.1
2018-05-26T06:47:30.788Z,18.1
2018-05-26T06:48:32.787Z,18.2
2018-05-26T06:49:34.794Z,18.2
2018-05-26T06:50:37.488Z,18.3
2018-05-26T06:51:39.789Z,18.3
2018-05-26T06:52:41.779Z,18.4
2018-05-26T06:53:43.796Z,18.4
2018-05-26T06:54:45.805Z,18.5
2018-05-26T06:55:47.790Z,18.5
2018-05-26T06:56:50.177Z,18.6
2018-05-26T06:57:52.460Z,18.6
2018-05-26T06:58:54.454Z,18.7
2018-05-26T06:59:56.466Z,18.8
2018-05-26T07:00:58.462Z,18.8
2018-05-26T07:02:00.468Z,18.9
2018-05-26T07:03:02.459Z,18.9
2018-05-26T07:04:04.465Z,19
2018-05-26T07:05:06.846Z,19
2018-05-26T07:06:08.854Z,19.1
2018-05-26T07:07:10.867Z,19.1
2018-05-26T07:08:12.873Z,19
2018-05-26T07:09:14.885Z,19
2018-05-26T07:10:17.173Z,19
2018-05-26T07:11:19.204Z,19
2018-05-26T07:12:21.206Z,19.1
2018-05-26T07:13:23.207Z,19.3
2018-05-26T07:14:25.218Z,19.3
2018-05-26T07:15:27.236Z,19.3
2018-05-26T07:16:29.651Z,19.3
2018-05-26T07:17:31.734Z,19.4
2018-05-26T07:18:33.872Z,19.3
2018-05-26T07:19:35.932Z,19.3
2018-05-26T07:20:37.916Z,19.5
2018-05-26T07:21:39.932Z,19.4
2018-05-26T07:22:41.940Z,19.4
2018-05-26T07:23:43.938Z,19.2
2018-05-26T07:24:45.972Z,19.3
2018-05-26T07:25:48.320Z,19.5
2018-05-26T07:26:50.330Z,19.4
2018-05-26T07:27:53.058Z,19.4
2018-05-26T07:28:54.980Z,19.6
2018-05-26T07:29:57.121Z,19.6
2018-05-26T07:30:59.435Z,19.7
2018-05-26T07:32:01.447Z,19.8
2018-05-26T07:33:03.839Z,19.8
2018-05-26T07:34:05.897Z,19.7
2018-05-26T07:35:07.924Z,19.6
2018-05-26T07:36:09.931Z,19.7
2018-05-26T07:37:11.953Z,19.8
2018-05-26T07:38:14.274Z,19.9
2018-05-26T07:39:16.309Z,19.8
2018-05-26T07:40:18.308Z,19.8
2018-05-26T07:41:20.392Z,19.9
2018-05-26T07:42:52.775Z,20
2018-05-26T07:43:54.773Z,19.8
2018-05-26T07:44:56.781Z,19.8
2018-05-26T07:45:58.782Z,19.9
2018-05-26T07:47:00.790Z,20.1
2018-05-26T07:48:03.083Z,20.1
2018-05-26T07:49:05.077Z,20.2
2018-05-26T07:50:07.089Z,20.4
2018-05-26T07:51:09.106Z,20.3
2018-05-26T07:52:11.105Z,20.4
2018-05-26T07:53:13.121Z,20.5
2018-05-26T07:54:15.106Z,20.4
2018-05-26T07:55:17.109Z,20.4
2018-05-26T07:56:19.553Z,20.5
2018-05-26T07:57:21.552Z,20.6
2018-05-26T07:58:23.553Z,20.6
2018-05-26T07:59:25.569Z,20.6
2018-05-26T08:00:27.843Z,20.6
2018-05-26T08:01:29.848Z,20.7
2018-05-26T08:02:31.860Z,21
2018-05-26T08:03:34.147Z,21.1
2018-05-26T08:04:36.438Z,21.3
2018-05-26T08:05:38.439Z,21.2
2018-05-26T08:06:41.108Z,21.1
2018-05-26T08:07:43.407Z,21.3
2018-05-26T08:08:45.403Z,21.4
2018-05-26T08:09:47.408Z,21.4
2018-05-26T08:10:49.458Z,21.5
2018-05-26T08:11:51.743Z,21.5
2018-05-26T08:12:53.745Z,21.4
2018-05-26T08:13:56.028Z,21.5
2018-05-26T08:14:58.043Z,21.7
2018-05-26T08:16:00.058Z,21.7
2018-05-26T08:17:02.052Z,21.7
2018-05-26T08:18:04.059Z,21.5
2018-05-26T08:19:06.067Z,21.5
2018-05-26T08:20:08.077Z,21.6
2018-05-26T08:21:10.087Z,21.6
2018-05-26T08:22:12.085Z,21.7
2018-05-26T08:23:14.104Z,21.8
2018-05-26T08:24:16.480Z,21.8
2018-05-26T08:25:18.491Z,21.8
2018-05-26T08:26:20.784Z,21.9
2018-05-26T08:27:22.859Z,22
2018-05-26T08:28:24.797Z,22.1
2018-05-26T08:29:26.809Z,22.1
2018-05-26T08:30:28.807Z,22.2
2018-05-26T08:31:30.821Z,22.2
2018-05-26T08:32:32.870Z,22.2
2018-05-26T08:33:34.837Z,22.3
2018-05-26T08:34:36.845Z,22.4
2018-05-26T08:35:39.136Z,22.4
2018-05-26T08:36:41.145Z,22.6
2018-05-26T08:37:43.155Z,22.7
2018-05-26T08:38:45.167Z,22.9
2018-05-26T08:39:47.175Z,22.8
2018-05-26T08:40:49.581Z,23
2018-05-26T08:41:51.588Z,23.1
2018-05-26T08:42:53.585Z,23.1
2018-05-26T08:43:55.597Z,23.2
2018-05-26T08:44:57.602Z,23.2
2018-05-26T08:45:59.598Z,23.3
2018-05-26T08:47:01.606Z,23.3
2018-05-26T08:48:03.629Z,23.5
2018-05-26T08:49:05.923Z,23.5
2018-05-26T08:50:08.211Z,23.5
2018-05-26T08:51:10.270Z,23.5
2018-05-26T08:52:12.214Z,23.6
2018-05-26T08:53:14.816Z,23.8
2018-05-26T08:54:17.111Z,23.9
2018-05-26T08:55:19.123Z,24.1
2018-05-26T08:56:21.133Z,24.2
2018-05-26T08:57:23.134Z,24.1
2018-05-26T08:58:25.145Z,24.1
2018-05-26T08:59:27.152Z,24.2
2018-05-26T09:00:29.446Z,24
2018-05-26T09:01:31.836Z,24
2018-05-26T09:02:33.839Z,24.1
2018-05-26T09:03:35.850Z,24.1
2018-05-26T09:04:37.853Z,24.1
2018-05-26T09:05:39.915Z,24.3
2018-05-26T09:06:41.871Z,24.2
2018-05-26T09:07:44.156Z,24
2018-05-26T09:08:46.181Z,24
2018-05-26T09:09:48.187Z,24.1
2018-05-26T09:10:50.202Z,24.3
2018-05-26T09:11:52.494Z,24.8
2018-05-26T09:12:54.496Z,24.7
2018-05-26T09:13:56.797Z,24.8
2018-05-26T09:14:58.852Z,24.6
2018-05-26T09:16:00.814Z,24.4
2018-05-26T09:17:02.825Z,24.2
2018-05-26T09:18:04.833Z,24.1
2018-05-26T09:19:07.123Z,24.3
2018-05-26T09:20:09.126Z,24.4
2018-05-26T09:21:11.140Z,24.5
2018-05-26T09:22:13.448Z,24.5
2018-05-26T09:23:15.445Z,24.6
2018-05-26T09:24:17.467Z,24.7
2018-05-26T09:25:19.514Z,24.6
2018-05-26T09:26:21.779Z,24.8
2018-05-26T09:27:23.788Z,24.9
2018-05-26T09:28:25.805Z,25.1
2018-05-26T09:29:27.815Z,25.3
2018-05-26T09:30:29.814Z,25.4
2018-05-26T09:31:31.816Z,25.3
2018-05-26T09:32:34.213Z,25.7
2018-05-26T09:33:36.225Z,25.8
2018-05-26T09:34:38.241Z,25.9
2018-05-26T09:35:40.256Z,25.8
2018-05-26T09:36:42.266Z,25.9
2018-05-26T09:37:44.269Z,26
2018-05-26T09:38:46.564Z,26
2018-05-26T09:39:48.578Z,25.9
2018-05-26T09:40:50.639Z,25.8
2018-05-26T09:41:52.606Z,25.8
2018-05-26T09:42:54.619Z,25.7
2018-05-26T09:43:56.621Z,26
2018-05-26T09:44:58.638Z,26
2018-05-26T09:46:00.650Z,26
2018-05-26T09:47:02.670Z,26.2
2018-05-26T09:48:04.684Z,26.5
2018-05-26T09:49:06.699Z,26.7
2018-05-26T09:50:08.708Z,26.3
2018-05-26T09:51:10.719Z,26.5
2018-05-26T09:52:12.726Z,25.9
2018-05-26T09:53:14.748Z,26
2018-05-26T09:54:16.768Z,26.2
2018-05-26T09:55:18.781Z,26.5
2018-05-26T09:56:21.421Z,26.3
2018-05-26T09:57:23.389Z,26.5
2018-05-26T09:58:25.400Z,26.3
2018-05-26T09:59:27.415Z,26.4
2018-05-26T10:00:29.429Z,26.4
2018-05-26T10:01:31.726Z,26.4
2018-05-26T10:02:34.014Z,26.4
2018-05-26T10:03:36.041Z,26.9
2018-05-26T10:04:38.058Z,26.7
2018-05-26T10:05:40.069Z,26.4
2018-05-26T10:06:42.079Z,26.3
2018-05-26T10:07:44.417Z,26.5
2018-05-26T10:08:46.437Z,27
2018-05-26T10:09:48.729Z,26.8
2018-05-26T10:10:50.728Z,26.9
2018-05-26T10:11:53.050Z,26.9
2018-05-26T10:12:55.053Z,27.1
2018-05-26T10:13:57.070Z,26.8
2018-05-26T10:14:59.098Z,26.8
2018-05-26T10:16:01.395Z,26.6
2018-05-26T10:17:03.698Z,26.8
2018-05-26T10:18:05.705Z,26.6
2018-05-26T10:19:08.008Z,27.2
2018-05-26T10:20:10.034Z,27.1
2018-05-26T10:21:12.342Z,26.8
2018-05-26T10:22:14.369Z,27.1
2018-05-26T10:23:16.671Z,27.1
2018-05-26T10:24:19.372Z,27.3
2018-05-26T10:25:21.395Z,27.8
2018-05-26T10:26:23.859Z,27.8
2018-05-26T10:27:25.879Z,27.1
2018-05-26T10:28:27.902Z,27.2
2018-05-26T10:29:30.212Z,27.3
2018-05-26T10:30:32.238Z,27.3
2018-05-26T10:31:34.249Z,27.1
2018-05-26T10:32:36.277Z,27.4
2018-05-26T10:33:38.302Z,27.9
2018-05-26T10:34:40.326Z,27.6
2018-05-26T10:35:42.347Z,27.8
2018-05-26T10:36:44.376Z,27.4
2018-05-26T10:37:46.678Z,27.6
2018-05-26T10:38:48.960Z,27.6
2018-05-26T10:39:50.982Z,27.6
2018-05-26T10:40:53.004Z,27.7
2018-05-26T10:41:55.041Z,27.3
2018-05-26T10:42:57.339Z,27.6
2018-05-26T10:43:59.375Z,27.8
2018-05-26T10:45:01.671Z,27.8
2018-05-26T10:46:04.072Z,28.2
2018-05-26T10:47:06.541Z,28
2018-05-26T10:48:08.533Z,28.1
2018-05-26T10:49:10.941Z,27.8
2018-05-26T10:50:12.959Z,28
2018-05-26T10:51:15.565Z,28.3
2018-05-26T10:52:17.586Z,28.6
2018-05-26T10:53:19.985Z,28.1
2018-05-26T10:54:22.016Z,28.6
2018-05-26T10:55:24.368Z,28.8
2018-05-26T10:56:26.394Z,28.4
2018-05-26T10:57:28.413Z,28.5
2018-05-26T10:58:30.430Z,28.3
2018-05-26T11:00:03.241Z,28.4
2018-05-26T11:01:05.356Z,28.1
2018-05-26T11:02:07.414Z,27.6
2018-05-26T11:03:09.759Z,28.3
2018-05-26T11:04:11.847Z,28.3
2018-05-26T11:05:13.892Z,28.7
2018-05-26T11:06:15.951Z,28.7
2018-05-26T11:07:18.300Z,28.7
2018-05-26T11:08:20.356Z,28.3
2018-05-26T11:09:23.121Z,27.9
2018-05-26T11:10:25.865Z,28.2
2018-05-26T11:11:27.932Z,28.1
2018-05-26T11:12:29.992Z,28.8
2018-05-26T11:13:32.458Z,28.5
2018-05-26T11:14:35.206Z,28.4
2018-05-26T11:15:37.260Z,28.7
2018-05-26T11:16:39.295Z,28.4
2018-05-26T11:17:41.720Z,28.5
2018-05-26T11:18:43.748Z,28.5
2018-05-26T11:19:45.810Z,28.3
2018-05-26T11:20:47.864Z,29.1
2018-05-26T11:21:49.929Z,28.8
2018-05-26T11:22:52.411Z,28.2
2018-05-26T11:23:54.639Z,27.9
2018-05-26T11:24:56.546Z,28.5
2018-05-26T11:25:59.077Z,27.9
2018-05-26T11:27:01.088Z,28.2
2018-05-26T11:28:03.153Z,28.6
2018-05-26T11:29:05.218Z,28.6
2018-05-26T11:30:07.279Z,28.3
2018-05-26T11:31:09.356Z,28.1
2018-05-26T11:32:11.420Z,28.3
2018-05-26T11:33:13.474Z,28.4
2018-05-26T11:34:15.535Z,28.2
2018-05-26T11:35:17.609Z,28.4
2018-05-26T11:36:19.671Z,28.4
2018-05-26T11:37:21.793Z,28.3
2018-05-26T11:38:24.182Z,28.5
2018-05-26T11:39:26.250Z,28.5
2018-05-26T11:40:28.365Z,28.7
2018-05-26T11:41:30.505Z,28.3
2018-05-26T11:42:32.861Z,28.5
2018-05-26T11:43:34.927Z,28.7
2018-05-26T11:44:36.969Z,28.4
2018-05-26T11:45:39.029Z,28.7
2018-05-26T11:46:41.142Z,28.5
2018-05-26T11:47:43.202Z,28.5
2018-05-26T11:48:45.265Z,28.2
2018-05-26T11:49:47.328Z,28.5
2018-05-26T11:50:49.673Z,28.3
2018-05-26T11:51:52.087Z,28.2
2018-05-26T11:52:54.169Z,28.3
2018-05-26T11:53:57.127Z,28.4
2018-05-26T11:54:59.576Z,28.1
2018-05-26T11:56:02.642Z,28.1
2018-05-26T11:57:05.869Z,28.3
2018-05-26T11:58:09.337Z,28
2018-05-26T11:59:12.176Z,27.9
2018-05-26T12:00:14.990Z,27.6
2018-05-26T12:01:17.460Z,27.8
2018-05-26T12:02:20.280Z,27.8
2018-05-26T12:03:23.574Z,27.9
2018-05-26T12:04:27.692Z,28.2
2018-05-26T12:05:30.263Z,28.3
2018-05-26T12:06:34.133Z,28.4
2018-05-26T12:07:36.808Z,28.1
2018-05-26T12:08:40.372Z,27.6
2018-05-26T12:09:42.809Z,27.9
2018-05-26T12:10:45.156Z,27.7
2018-05-26T12:11:47.576Z,27.7
2018-05-26T12:12:49.891Z,28.3
2018-05-26T12:13:52.055Z,28.2
2018-05-26T12:14:54.604Z,28.3
2018-05-26T12:15:56.830Z,27.9
2018-05-26T12:16:59.346Z,28.5
2018-05-26T12:18:02.031Z,28.3
2018-05-26T12:19:04.421Z,28.3
2018-05-26T12:20:06.589Z,28.1
2018-05-26T12:21:08.958Z,28.3
2018-05-26T12:22:11.431Z,28.6
2018-05-26T12:23:13.516Z,28.3
2018-05-26T12:24:15.566Z,28.1
2018-05-26T12:25:17.926Z,28.5
2018-05-26T12:26:20.354Z,28.1
2018-05-26T12:27:22.511Z,28.5
2018-05-26T12:28:24.576Z,28.7
2018-05-26T12:29:27.032Z,28.4
2018-05-26T12:30:29.787Z,28.5
2018-05-26T12:31:32.133Z,28.4
2018-05-26T12:32:34.211Z,28.2
2018-05-26T12:33:36.321Z,28.3
2018-05-26T12:34:38.379Z,28.3
2018-05-26T12:35:40.751Z,28.4
2018-05-26T12:36:42.882Z,28
2018-05-26T12:37:44.995Z,27.5
2018-05-26T12:38:47.100Z,27.8
2018-05-26T12:39:49.157Z,28.6
2018-05-26T12:40:51.238Z,28.4
2018-05-26T12:41:53.341Z,28.5
2018-05-26T12:42:55.704Z,27.7
2018-05-26T12:43:57.804Z,28.2
2018-05-26T12:44:59.868Z,27.9
2018-05-26T12:46:02.292Z,27.4
2018-05-26T12:47:04.359Z,28.1
2018-05-26T12:48:06.744Z,28.3
2018-05-26T12:49:09.132Z,28.3
2018-05-26T12:50:11.214Z,27.9
2018-05-26T12:51:13.320Z,27.9
2018-05-26T12:52:15.416Z,28.1
2018-05-26T12:53:17.869Z,28.1
2018-05-26T12:54:19.978Z,28
2018-05-26T12:55:22.051Z,27.9
2018-05-26T12:56:24.215Z,27.9
2018-05-26T12:57:26.280Z,28
2018-05-26T12:58:28.342Z,28.1
2018-05-26T12:59:30.402Z,28.4
2018-05-26T13:00:32.533Z,28.3
2018-05-26T13:01:34.594Z,28.4
2018-05-26T13:02:36.659Z,27.9
2018-05-26T13:03:38.723Z,28.2
2018-05-26T13:04:40.860Z,28
2018-05-26T13:05:42.925Z,28
2018-05-26T13:06:44.996Z,28
2018-05-26T13:07:47.059Z,27.7
2018-05-26T13:08:49.164Z,27.8
2018-05-26T13:09:51.264Z,27.8
2018-05-26T13:10:53.327Z,27.8
2018-05-26T13:11:55.454Z,27.9
2018-05-26T13:12:57.585Z,28.2
2018-05-26T13:13:59.634Z,28.4
2018-05-26T13:15:01.698Z,28.5
2018-05-26T13:16:03.769Z,28.3
2018-05-26T13:17:05.831Z,28.8
2018-05-26T13:18:07.902Z,28.7
2018-05-26T13:19:09.955Z,28.6
2018-05-26T13:20:12.039Z,29
2018-05-26T13:21:14.106Z,28.4
2018-05-26T13:22:16.213Z,28.1
2018-05-26T13:23:18.309Z,28.4
2018-05-26T13:24:20.373Z,28.6
2018-05-26T13:25:22.445Z,27.9
2018-05-26T13:26:24.524Z,27.9
2018-05-26T13:27:26.579Z,28
2018-05-26T13:28:28.952Z,28.2
2018-05-26T13:29:31.021Z,27.6
2018-05-26T13:30:33.366Z,27.5
2018-05-26T13:31:35.443Z,27.5
2018-05-26T13:32:37.533Z,27.5
2018-05-26T13:33:39.646Z,27.2
2018-05-26T13:34:42.123Z,27.6
2018-05-26T13:35:44.195Z,27.5
2018-05-26T13:36:46.267Z,27.4
2018-05-26T13:37:48.703Z,26.8
2018-05-26T13:38:50.778Z,26.8
2018-05-26T13:39:52.837Z,27.1
2018-05-26T13:40:55.178Z,27.4
2018-05-26T13:41:57.251Z,27.2
2018-05-26T13:42:59.322Z,27.2
2018-05-26T13:44:01.432Z,27.5
2018-05-26T13:45:03.843Z,27.3
2018-05-26T13:46:05.944Z,27.6
2018-05-26T13:47:08.025Z,27.6
2018-05-26T13:48:10.079Z,27.6
2018-05-26T13:49:12.161Z,27.5
2018-05-26T13:50:14.537Z,27.3
2018-05-26T13:51:16.719Z,27.5
2018-05-26T13:52:18.779Z,27.8